KHSI

Hastings Municipal Airport

Hastings, Nebraska, USA
METAR KHSI 200653Z AUTO 33015KT 1 3/4SM -SN BR OVC013 M11/M12 A2988 RMK AO2 SNB0554 SLP153 P0000 T11061122
Observed Flight Rules
Feb-20 @ 06:53 UTC (26 minutes ago) Instrument Flight Rules
Wind Visibility Clouds Conditions
330° at 15 knots 1 3/4 miles
  • Overcast at 1,300' AGL
  • Light Snow
  • Mist
Temperatures Readings Precipitation
Current -11°C / 12°F
Dewpoint -12°C / 10°F
Humidity 92%
Altimeter 29.88" Hg
Pressure 1015.3 hPa
Elevation 591
Current Rain 0.005
METAR KHSI 200653Z AUTO 33015KT 1 3/4SM -SN BR OVC013 M11/M12 A2988 RMK AO2 SNB0554 SLP153 P0000 T11061122
Observed Flight Rules
Feb-20 @ 06:53 UTC
(26 minutes ago)
IFR
Wind Visibility
330° at 15 knots 1 3/4 miles
Clouds
  • Overcast at 1,300' AGL
Conditions
  • Light Snow
  • Mist
Temperature Dewpoint
-11°C / 12°F -12°C / 10°F
Humidity Altimeter Pressure
92% 29.88" Hg 1015.3 hPa
Current Rain
0.005